createdAt,value
2018-03-29T00:00:43.746Z,4.02
2018-03-29T00:01:43.732Z,4.02
2018-03-29T00:02:43.704Z,4.08
2018-03-29T00:03:43.679Z,4.09
2018-03-29T00:04:43.657Z,4.08
2018-03-29T00:05:43.638Z,4.05
2018-03-29T00:06:43.615Z,4.11
2018-03-29T00:07:43.593Z,4.05
2018-03-29T00:08:43.568Z,4.11
2018-03-29T00:09:43.554Z,4.16
2018-03-29T00:10:43.524Z,4.20
2018-03-29T00:11:43.505Z,4.24
2018-03-29T00:12:43.482Z,4.20
2018-03-29T00:13:43.457Z,4.23
2018-03-29T00:14:43.447Z,4.24
2018-03-29T00:15:43.417Z,4.16
2018-03-29T00:16:43.395Z,4.24
2018-03-29T00:17:43.374Z,4.24
2018-03-29T00:18:43.347Z,4.16
2018-03-29T00:19:43.327Z,4.33
2018-03-29T00:20:43.305Z,4.27
2018-03-29T00:21:43.284Z,4.27
2018-03-29T00:22:43.259Z,4.20
2018-03-29T00:23:43.236Z,4.23
2018-03-29T00:24:43.217Z,4.24
2018-03-29T00:25:43.194Z,4.24
2018-03-29T00:26:43.179Z,4.23
2018-03-29T00:27:43.149Z,4.29
2018-03-29T00:28:43.125Z,4.22
2018-03-29T00:29:43.104Z,4.16
2018-03-29T00:30:43.083Z,4.23
2018-03-29T00:31:43.066Z,4.23
2018-03-29T00:32:43.038Z,4.22
2018-03-29T00:33:43.019Z,4.32
2018-03-29T00:34:42.997Z,4.26
2018-03-29T00:35:42.974Z,4.27
2018-03-29T00:36:42.950Z,4.27
2018-03-29T00:37:42.927Z,4.23
2018-03-29T00:38:42.918Z,4.26
2018-03-29T00:39:42.888Z,4.32
2018-03-29T00:40:42.879Z,4.26
2018-03-29T00:41:42.844Z,4.27
2018-03-29T00:42:42.825Z,4.23
2018-03-29T00:43:42.801Z,4.30
2018-03-29T00:44:42.772Z,4.27
2018-03-29T00:45:42.753Z,4.30
2018-03-29T00:46:42.737Z,4.32
2018-03-29T00:47:42.707Z,4.36
2018-03-29T00:48:42.688Z,4.27
2018-03-29T00:49:42.669Z,4.30
2018-03-29T00:50:42.646Z,4.24
2018-03-29T00:51:42.617Z,4.27
2018-03-29T00:52:42.600Z,4.27
2018-03-29T00:53:42.580Z,4.29
2018-03-29T00:54:42.559Z,4.30
2018-03-29T00:55:42.539Z,4.26
2018-03-29T00:56:42.519Z,4.29
2018-03-29T00:57:42.487Z,4.33
2018-03-29T00:58:42.471Z,4.32
2018-03-29T00:59:42.444Z,4.33
2018-03-29T01:00:42.425Z,4.34
2018-03-29T01:01:42.404Z,4.33
2018-03-29T01:02:42.378Z,4.37
2018-03-29T01:03:42.360Z,4.26
2018-03-29T01:04:42.337Z,4.33
2018-03-29T01:05:42.320Z,4.32
2018-03-29T01:06:42.293Z,4.32
2018-03-29T01:07:42.269Z,4.33
2018-03-29T01:08:42.249Z,4.29
2018-03-29T01:09:42.224Z,4.30
2018-03-29T01:10:42.204Z,4.30
2018-03-29T01:11:42.186Z,4.32
2018-03-29T01:12:42.158Z,4.30
2018-03-29T01:13:42.137Z,4.30
2018-03-29T01:14:42.128Z,4.33
2018-03-29T01:15:42.095Z,4.40
2018-03-29T01:16:42.073Z,4.30
2018-03-29T01:17:42.048Z,4.36
2018-03-29T01:18:42.029Z,4.44
2018-03-29T01:19:42.008Z,4.42
2018-03-29T01:20:41.984Z,4.44
2018-03-29T01:21:41.963Z,4.37
2018-03-29T01:22:41.937Z,4.29
2018-03-29T01:23:41.929Z,4.30
2018-03-29T01:24:41.897Z,4.30
2018-03-29T01:25:41.875Z,4.30
2018-03-29T01:26:41.849Z,4.32
2018-03-29T01:27:41.830Z,4.30
2018-03-29T01:28:41.807Z,4.24
2018-03-29T01:29:41.788Z,4.26
2018-03-29T01:30:41.762Z,4.29
2018-03-29T01:31:41.739Z,4.30
2018-03-29T01:32:41.723Z,4.29
2018-03-29T01:33:41.698Z,4.24
2018-03-29T01:34:41.677Z,4.30
2018-03-29T01:35:41.653Z,4.24
2018-03-29T01:36:41.628Z,4.24
2018-03-29T01:37:41.613Z,4.29
2018-03-29T01:38:41.596Z,4.20
2018-03-29T01:39:41.564Z,4.27
2018-03-29T01:40:41.541Z,4.24
2018-03-29T01:41:41.520Z,4.23
2018-03-29T01:42:41.497Z,4.27
2018-03-29T01:43:41.477Z,4.26
2018-03-29T01:44:41.456Z,4.18
2018-03-29T01:45:41.433Z,4.26
2018-03-29T01:46:41.413Z,4.22
2018-03-29T01:47:41.387Z,4.18
2018-03-29T01:48:41.365Z,4.20
2018-03-29T01:49:41.351Z,4.16
2018-03-29T01:50:41.323Z,4.16
2018-03-29T01:51:41.297Z,4.16
2018-03-29T01:52:41.277Z,4.23
2018-03-29T01:53:41.259Z,4.24
2018-03-29T01:54:41.232Z,4.23
2018-03-29T01:55:41.217Z,4.24
2018-03-29T01:56:41.195Z,4.23
2018-03-29T01:57:41.167Z,4.14
2018-03-29T01:58:41.145Z,4.23
2018-03-29T01:59:41.127Z,4.22
2018-03-29T02:00:41.106Z,4.24
2018-03-29T02:01:41.082Z,4.32
2018-03-29T02:02:41.057Z,4.16
2018-03-29T02:03:41.034Z,4.30
2018-03-29T02:04:41.010Z,4.26
2018-03-29T02:05:40.994Z,4.23
2018-03-29T02:06:40.978Z,4.24
2018-03-29T02:07:40.955Z,4.27
2018-03-29T02:08:40.923Z,4.24
2018-03-29T02:09:40.908Z,4.29
2018-03-29T02:10:40.882Z,4.29
2018-03-29T02:11:40.862Z,4.27
2018-03-29T02:12:40.837Z,4.30
2018-03-29T02:13:40.819Z,4.26
2018-03-29T02:14:40.795Z,4.27
2018-03-29T02:15:40.769Z,4.33
2018-03-29T02:16:40.745Z,4.27
2018-03-29T02:17:40.726Z,4.30
2018-03-29T02:18:40.705Z,4.27
2018-03-29T02:19:40.682Z,4.33
2018-03-29T02:20:40.658Z,4.36
2018-03-29T02:21:40.637Z,4.34
2018-03-29T02:22:40.614Z,4.27
2018-03-29T02:23:40.590Z,4.29
2018-03-29T02:24:40.577Z,4.33
2018-03-29T02:25:40.552Z,4.24
2018-03-29T02:26:40.525Z,4.27
2018-03-29T02:27:40.507Z,4.23
2018-03-29T02:28:40.480Z,4.24
2018-03-29T02:29:40.457Z,4.26
2018-03-29T02:30:40.438Z,4.30
2018-03-29T02:31:40.418Z,4.34
2018-03-29T02:32:40.394Z,4.32
2018-03-29T02:33:40.369Z,4.27
2018-03-29T02:34:40.354Z,4.27
2018-03-29T02:35:40.325Z,4.27
2018-03-29T02:36:40.305Z,4.24
2018-03-29T02:37:40.283Z,4.24
2018-03-29T02:38:40.258Z,4.30
2018-03-29T02:39:40.243Z,4.18
2018-03-29T02:40:40.221Z,4.23
2018-03-29T02:41:40.233Z,4.23
2018-03-29T02:42:40.170Z,4.24
2018-03-29T02:43:40.152Z,4.22
2018-03-29T02:44:40.127Z,4.20
2018-03-29T02:45:40.106Z,4.16
2018-03-29T02:46:40.087Z,4.20
2018-03-29T02:47:40.060Z,4.20
2018-03-29T02:48:40.036Z,4.29
2018-03-29T02:49:40.018Z,4.30
2018-03-29T02:50:39.997Z,4.27
2018-03-29T02:51:39.973Z,4.30
2018-03-29T02:52:39.947Z,4.23
2018-03-29T02:53:39.926Z,4.24
2018-03-29T02:54:39.915Z,4.24
2018-03-29T02:55:39.886Z,4.24
2018-03-29T02:56:39.861Z,4.27
2018-03-29T02:57:39.849Z,4.26
2018-03-29T02:58:39.816Z,4.14
2018-03-29T02:59:39.793Z,4.27
2018-03-29T03:00:39.782Z,4.16
2018-03-29T03:01:39.751Z,4.20
2018-03-29T03:02:39.732Z,4.24
2018-03-29T03:03:39.708Z,4.34
2018-03-29T03:04:39.687Z,4.27
2018-03-29T03:05:39.663Z,4.24
2018-03-29T03:06:39.640Z,4.30
2018-03-29T03:07:39.616Z,4.27
2018-03-29T03:08:39.597Z,4.32
2018-03-29T03:09:39.577Z,4.32
2018-03-29T03:10:39.554Z,4.33
2018-03-29T03:11:39.530Z,4.29
2018-03-29T03:12:39.513Z,4.27
2018-03-29T03:13:39.484Z,4.33
2018-03-29T03:14:39.462Z,4.30
2018-03-29T03:15:39.439Z,4.30
2018-03-29T03:16:39.421Z,4.30
2018-03-29T03:17:39.396Z,4.44
2018-03-29T03:18:39.376Z,4.34
2018-03-29T03:19:39.355Z,4.41
2018-03-29T03:20:39.335Z,4.40
2018-03-29T03:21:39.315Z,4.44
2018-03-29T03:22:39.285Z,4.41
2018-03-29T03:23:39.267Z,4.47
2018-03-29T03:24:39.244Z,4.45
2018-03-29T03:25:39.220Z,4.44
2018-03-29T03:26:39.196Z,4.51
2018-03-29T03:27:39.177Z,4.44
2018-03-29T03:28:39.157Z,4.36
2018-03-29T03:29:39.136Z,4.48
2018-03-29T03:30:39.118Z,4.41
2018-03-29T03:31:39.088Z,4.44
2018-03-29T03:32:39.068Z,4.36
2018-03-29T03:33:39.042Z,4.41
2018-03-29T03:34:39.030Z,4.42
2018-03-29T03:35:39.001Z,4.32
2018-03-29T03:36:38.976Z,4.36
2018-03-29T03:37:38.957Z,4.29
2018-03-29T03:38:38.931Z,4.34
2018-03-29T03:39:38.910Z,4.27
2018-03-29T03:40:38.895Z,4.29
2018-03-29T03:41:38.866Z,4.30
2018-03-29T03:42:38.846Z,4.36
2018-03-29T03:43:38.824Z,4.33
2018-03-29T03:44:38.800Z,4.30
2018-03-29T03:45:38.787Z,4.40
2018-03-29T03:46:38.761Z,4.32
2018-03-29T03:47:38.736Z,4.41
2018-03-29T03:48:38.715Z,4.34
2018-03-29T03:49:38.689Z,4.32
2018-03-29T03:50:38.673Z,4.34
2018-03-29T03:51:38.647Z,4.34
2018-03-29T03:52:38.627Z,4.36
2018-03-29T03:53:38.602Z,4.34
2018-03-29T03:54:38.587Z,4.34
2018-03-29T03:55:38.563Z,4.45
2018-03-29T03:56:38.537Z,4.37
2018-03-29T03:57:38.514Z,4.47
2018-03-29T03:58:38.491Z,4.44
2018-03-29T03:59:38.476Z,4.40
2018-03-29T04:00:38.447Z,4.41
2018-03-29T04:01:38.426Z,4.45
2018-03-29T04:02:38.406Z,4.36
2018-03-29T04:03:38.386Z,4.30
2018-03-29T04:04:38.363Z,4.36
2018-03-29T04:05:38.335Z,4.33
2018-03-29T04:06:38.318Z,4.32
2018-03-29T04:07:38.293Z,4.33
2018-03-29T04:08:38.289Z,4.36
2018-03-29T04:09:38.253Z,4.34
2018-03-29T04:10:38.235Z,4.32
2018-03-29T04:11:38.210Z,4.34
2018-03-29T04:12:38.185Z,4.30
2018-03-29T04:13:38.167Z,4.32
2018-03-29T04:14:38.143Z,4.26
2018-03-29T04:15:38.121Z,4.30
2018-03-29T04:16:38.100Z,4.34
2018-03-29T04:17:38.071Z,4.34
2018-03-29T04:18:38.057Z,4.29
2018-03-29T04:19:38.031Z,4.27
2018-03-29T04:20:38.007Z,4.29
2018-03-29T04:21:37.987Z,4.37
2018-03-29T04:22:37.968Z,4.32
2018-03-29T04:23:37.943Z,4.32
2018-03-29T04:24:37.924Z,4.40
2018-03-29T04:25:37.900Z,4.37
2018-03-29T04:26:37.872Z,4.40
2018-03-29T04:27:37.860Z,4.30
2018-03-29T04:28:37.833Z,4.30
2018-03-29T04:29:37.814Z,4.42
2018-03-29T04:30:37.794Z,4.40
2018-03-29T04:31:37.766Z,4.36
2018-03-29T04:32:37.749Z,4.32
2018-03-29T04:33:37.726Z,4.33
2018-03-29T04:34:37.703Z,4.42
2018-03-29T04:35:37.676Z,4.41
2018-03-29T04:36:37.655Z,4.34
2018-03-29T04:37:37.637Z,4.44
2018-03-29T04:38:37.608Z,4.40
2018-03-29T04:39:37.588Z,4.40
2018-03-29T04:40:37.572Z,4.32
2018-03-29T04:41:37.545Z,4.37
2018-03-29T04:42:37.521Z,4.32
2018-03-29T04:43:37.504Z,4.34
2018-03-29T04:44:37.482Z,4.34
2018-03-29T04:45:37.455Z,4.42
2018-03-29T04:46:37.437Z,4.32
2018-03-29T04:47:37.416Z,4.37
2018-03-29T04:48:37.391Z,4.36
2018-03-29T04:49:37.375Z,4.40
2018-03-29T04:50:37.347Z,4.44
2018-03-29T04:51:37.326Z,4.41
2018-03-29T04:52:37.301Z,4.48
2018-03-29T04:53:37.285Z,4.37
2018-03-29T04:54:37.263Z,4.40
2018-03-29T04:55:37.241Z,4.50
2018-03-29T04:56:37.217Z,4.42
2018-03-29T04:57:37.192Z,4.44
2018-03-29T04:58:37.171Z,4.37
2018-03-29T04:59:37.157Z,4.37
2018-03-29T05:00:37.126Z,4.37
2018-03-29T05:01:37.106Z,4.44
2018-03-29T05:02:37.088Z,4.29
2018-03-29T05:03:37.067Z,4.42
2018-03-29T05:04:37.047Z,4.42
2018-03-29T05:05:37.026Z,4.30
2018-03-29T05:06:36.996Z,4.37
2018-03-29T05:07:37.031Z,4.42
2018-03-29T05:08:36.954Z,4.44
2018-03-29T05:09:36.936Z,4.40
2018-03-29T05:10:36.912Z,4.42
2018-03-29T05:11:36.887Z,4.45
2018-03-29T05:12:36.866Z,4.50
2018-03-29T05:13:36.842Z,4.45
2018-03-29T05:14:36.820Z,4.44
2018-03-29T05:15:36.804Z,4.51
2018-03-29T05:16:36.778Z,4.41
2018-03-29T05:17:36.757Z,4.41
2018-03-29T05:18:36.733Z,4.30
2018-03-29T05:19:36.716Z,4.47
2018-03-29T05:20:36.693Z,4.42
2018-03-29T05:21:36.668Z,4.50
2018-03-29T05:22:36.646Z,4.45
2018-03-29T05:23:36.641Z,4.48
2018-03-29T05:24:36.603Z,4.45
2018-03-29T05:25:36.591Z,4.44
2018-03-29T05:26:36.557Z,4.44
2018-03-29T05:27:36.536Z,4.44
2018-03-29T05:28:36.516Z,4.42
2018-03-29T05:29:36.492Z,4.48
2018-03-29T05:30:36.473Z,4.44
2018-03-29T05:31:36.445Z,4.50
2018-03-29T05:32:36.428Z,4.45
2018-03-29T05:33:36.403Z,4.50
2018-03-29T05:34:36.385Z,4.48
2018-03-29T05:35:36.361Z,4.50
2018-03-29T05:36:36.341Z,4.62
2018-03-29T05:37:36.317Z,4.63
2018-03-29T05:38:36.296Z,4.60
2018-03-29T05:39:36.273Z,4.60
2018-03-29T05:40:36.250Z,4.59
2018-03-29T05:41:36.232Z,4.58
2018-03-29T05:42:36.207Z,4.59
2018-03-29T05:43:36.188Z,4.45
2018-03-29T05:44:36.168Z,4.59
2018-03-29T05:45:36.152Z,4.59
2018-03-29T05:46:36.117Z,4.66
2018-03-29T05:47:36.099Z,4.66
2018-03-29T05:48:36.075Z,4.69
2018-03-29T05:49:36.055Z,4.67
2018-03-29T05:50:36.038Z,4.67
2018-03-29T05:51:36.010Z,4.62
2018-03-29T05:52:35.986Z,4.72
2018-03-29T05:53:35.965Z,4.69
2018-03-29T05:54:35.946Z,4.65
2018-03-29T05:55:35.952Z,4.69
2018-03-29T05:56:35.902Z,4.69
2018-03-29T05:57:35.899Z,4.72
2018-03-29T05:58:35.855Z,4.69
2018-03-29T05:59:35.833Z,4.66
2018-03-29T06:00:35.810Z,4.73
2018-03-29T06:01:35.791Z,4.75
2018-03-29T06:02:35.770Z,4.72
2018-03-29T06:03:35.746Z,4.73
2018-03-29T06:04:35.727Z,4.75
2018-03-29T06:05:35.703Z,4.84
2018-03-29T06:06:35.687Z,4.78
2018-03-29T06:07:35.656Z,4.82
2018-03-29T06:08:35.639Z,4.82
2018-03-29T06:09:35.621Z,4.88
2018-03-29T06:10:35.594Z,4.88
2018-03-29T06:11:35.568Z,4.85
2018-03-29T06:12:35.546Z,4.84
2018-03-29T06:13:35.527Z,4.88
2018-03-29T06:14:35.503Z,4.89
2018-03-29T06:15:35.482Z,4.88
2018-03-29T06:16:35.458Z,4.80
2018-03-29T06:17:35.440Z,4.89
2018-03-29T06:18:35.417Z,4.89
2018-03-29T06:19:35.397Z,4.91
2018-03-29T06:20:35.371Z,4.92
2018-03-29T06:21:35.359Z,4.91
2018-03-29T06:22:35.335Z,4.86
2018-03-29T06:23:35.310Z,4.84
2018-03-29T06:24:35.286Z,4.86
2018-03-29T06:25:35.265Z,4.86
2018-03-29T06:26:35.244Z,4.89
2018-03-29T06:27:35.220Z,4.92
2018-03-29T06:28:35.202Z,5.00
2018-03-29T06:29:35.175Z,5.00
2018-03-29T06:30:35.156Z,4.91
2018-03-29T06:31:35.134Z,4.89
2018-03-29T06:32:35.114Z,5.03
2018-03-29T06:33:35.098Z,5.07
2018-03-29T06:34:35.076Z,4.94
2018-03-29T06:35:35.053Z,5.00
2018-03-29T06:36:35.024Z,5.02
2018-03-29T06:37:35.006Z,5.02
2018-03-29T06:38:35.008Z,5.03
2018-03-29T06:39:34.960Z,5.02
2018-03-29T06:40:34.936Z,5.02
2018-03-29T06:41:34.915Z,5.04
2018-03-29T06:42:34.897Z,5.09
2018-03-29T06:43:34.872Z,5.07
2018-03-29T06:44:34.849Z,5.10
2018-03-29T06:45:34.827Z,5.03
2018-03-29T06:46:34.808Z,5.12
2018-03-29T06:47:34.785Z,5.12
2018-03-29T06:48:34.766Z,5.13
2018-03-29T06:49:34.743Z,5.10
2018-03-29T06:50:34.721Z,5.17
2018-03-29T06:51:34.708Z,5.17
2018-03-29T06:52:34.678Z,5.12
2018-03-29T06:53:34.657Z,5.15
2018-03-29T06:54:34.633Z,5.13
2018-03-29T06:55:34.615Z,5.06
2018-03-29T06:56:34.587Z,5.09
2018-03-29T06:57:34.570Z,5.10
2018-03-29T06:58:34.549Z,5.12
2018-03-29T06:59:34.527Z,5.10
2018-03-29T07:00:34.500Z,5.07
2018-03-29T07:01:34.486Z,5.10
2018-03-29T07:02:34.461Z,5.06
2018-03-29T07:03:34.440Z,5.07
2018-03-29T07:04:34.417Z,5.07
2018-03-29T07:05:34.394Z,5.03
2018-03-29T07:06:34.373Z,5.03
2018-03-29T07:07:34.358Z,5.04
2018-03-29T07:08:34.330Z,5.03
2018-03-29T07:09:34.313Z,5.09
2018-03-29T07:10:34.287Z,5.03
2018-03-29T07:11:34.263Z,5.12
2018-03-29T07:12:34.251Z,5.12
2018-03-29T07:13:34.224Z,5.12
2018-03-29T07:14:34.200Z,5.07
2018-03-29T07:15:34.175Z,5.13
2018-03-29T07:16:34.157Z,5.09
2018-03-29T07:17:34.137Z,5.06
2018-03-29T07:18:34.121Z,5.06
2018-03-29T07:19:34.100Z,5.10
2018-03-29T07:20:34.069Z,5.12
2018-03-29T07:21:34.057Z,5.20
2018-03-29T07:22:34.026Z,5.17
2018-03-29T07:23:34.009Z,5.10
2018-03-29T07:24:33.986Z,5.18
2018-03-29T07:25:33.960Z,5.15
2018-03-29T07:26:33.947Z,5.12
2018-03-29T07:27:33.922Z,5.13
2018-03-29T07:28:33.896Z,5.09
2018-03-29T07:29:33.876Z,5.12
2018-03-29T07:30:33.860Z,5.22
2018-03-29T07:31:33.836Z,5.13
2018-03-29T07:32:33.810Z,5.13
2018-03-29T07:33:33.791Z,5.25
2018-03-29T07:34:33.772Z,5.18
2018-03-29T07:35:33.747Z,5.24
2018-03-29T07:36:33.764Z,5.27
2018-03-29T07:37:33.702Z,5.21
2018-03-29T07:38:33.682Z,5.20
2018-03-29T07:39:33.658Z,5.22
2018-03-29T07:40:33.638Z,5.18
2018-03-29T07:41:33.616Z,5.25
2018-03-29T07:42:33.596Z,5.22
2018-03-29T07:43:33.574Z,5.24
2018-03-29T07:44:33.556Z,5.21
2018-03-29T07:45:33.528Z,5.20
2018-03-29T07:46:33.509Z,5.35
2018-03-29T07:47:33.490Z,5.30
2018-03-29T07:48:33.463Z,5.39
2018-03-29T07:49:33.444Z,5.25
2018-03-29T07:50:33.427Z,5.33
2018-03-29T07:51:33.400Z,5.27
2018-03-29T07:52:33.380Z,5.36
2018-03-29T07:53:33.360Z,5.39
2018-03-29T07:54:33.337Z,5.43
2018-03-29T07:55:33.321Z,5.56
2018-03-29T07:56:33.291Z,5.54
2018-03-29T07:57:33.269Z,5.51
2018-03-29T07:58:33.247Z,5.51
2018-03-29T07:59:33.228Z,5.63
2018-03-29T08:00:33.209Z,5.60
2018-03-29T08:01:33.187Z,5.65
2018-03-29T08:02:33.162Z,5.61
2018-03-29T08:03:33.148Z,5.58
2018-03-29T08:04:33.120Z,5.75
2018-03-29T08:05:33.096Z,5.64
2018-03-29T08:06:33.076Z,5.58
2018-03-29T08:07:33.058Z,5.64
2018-03-29T08:08:33.040Z,5.60
2018-03-29T08:09:33.015Z,5.71
2018-03-29T08:10:32.990Z,5.72
2018-03-29T08:11:32.967Z,5.81
2018-03-29T08:12:32.953Z,5.72
2018-03-29T08:13:32.925Z,5.78
2018-03-29T08:14:32.907Z,5.83
2018-03-29T08:15:32.886Z,5.78
2018-03-29T08:16:32.867Z,5.93
2018-03-29T08:17:32.843Z,5.81
2018-03-29T08:18:32.820Z,5.82
2018-03-29T08:19:32.799Z,5.90
2018-03-29T08:20:32.778Z,5.81
2018-03-29T08:21:32.765Z,5.76
2018-03-29T08:22:32.735Z,5.78
2018-03-29T08:23:32.711Z,5.78
2018-03-29T08:24:32.700Z,5.82
2018-03-29T08:25:32.670Z,5.91
2018-03-29T08:26:32.649Z,5.89
2018-03-29T08:27:32.630Z,5.93
2018-03-29T08:28:32.626Z,5.90
2018-03-29T08:29:32.593Z,5.82
2018-03-29T08:30:32.571Z,5.91
2018-03-29T08:31:32.545Z,5.85
2018-03-29T08:32:32.520Z,5.78
2018-03-29T08:33:32.498Z,5.89
2018-03-29T08:34:32.489Z,5.79
2018-03-29T08:35:32.473Z,5.79
2018-03-29T08:36:32.437Z,5.78
2018-03-29T08:37:32.415Z,5.78
2018-03-29T08:38:32.395Z,5.76
2018-03-29T08:39:32.372Z,5.78
2018-03-29T08:40:32.359Z,5.79
2018-03-29T08:41:32.331Z,5.79
2018-03-29T08:42:32.315Z,5.81
2018-03-29T08:43:32.281Z,5.85
2018-03-29T08:44:32.261Z,5.90
2018-03-29T08:45:32.247Z,5.75
2018-03-29T08:46:32.241Z,5.91
2018-03-29T08:47:32.197Z,5.93
2018-03-29T08:48:32.174Z,6.00
2018-03-29T08:49:32.153Z,5.91
2018-03-29T08:50:32.132Z,5.93
2018-03-29T08:51:32.119Z,6.06
2018-03-29T08:52:32.093Z,6.03
2018-03-29T08:53:32.085Z,6.14
2018-03-29T08:54:32.049Z,6.21
2018-03-29T08:55:32.038Z,6.15
2018-03-29T08:56:32.009Z,6.21
2018-03-29T08:57:31.986Z,6.21
2018-03-29T08:58:31.966Z,6.28
2018-03-29T08:59:31.943Z,6.17
2018-03-29T09:00:31.918Z,6.17
2018-03-29T09:01:31.907Z,6.22
2018-03-29T09:02:31.881Z,6.28
2018-03-29T09:03:31.859Z,6.14
2018-03-29T09:04:31.835Z,6.22
2018-03-29T09:05:31.818Z,6.25
2018-03-29T09:06:31.794Z,6.25
2018-03-29T09:07:31.779Z,6.30
2018-03-29T09:08:31.755Z,6.30
2018-03-29T09:09:31.729Z,6.19
2018-03-29T09:10:31.716Z,6.15
2018-03-29T09:11:31.685Z,6.18
2018-03-29T09:12:31.674Z,6.18
2018-03-29T09:13:31.647Z,6.11
2018-03-29T09:14:31.625Z,6.25
2018-03-29T09:15:31.601Z,6.15
2018-03-29T09:16:31.577Z,6.14
2018-03-29T09:17:31.557Z,6.14
2018-03-29T09:18:31.537Z,6.30
2018-03-29T09:19:31.516Z,6.34
2018-03-29T09:20:31.498Z,6.30
2018-03-29T09:21:31.497Z,6.30
2018-03-29T09:22:31.454Z,6.28
2018-03-29T09:23:31.438Z,6.34
2018-03-29T09:24:31.409Z,6.36
2018-03-29T09:25:31.391Z,6.38
2018-03-29T09:26:31.367Z,6.36
2018-03-29T09:27:31.348Z,6.36
2018-03-29T09:28:31.329Z,6.41
2018-03-29T09:29:31.303Z,6.40
2018-03-29T09:30:31.287Z,6.40
2018-03-29T09:31:31.273Z,6.48
2018-03-29T09:32:31.246Z,6.51
2018-03-29T09:33:31.226Z,6.54
2018-03-29T09:34:31.202Z,6.56
2018-03-29T09:35:31.181Z,6.46
2018-03-29T09:36:31.157Z,6.67
2018-03-29T09:37:31.133Z,6.61
2018-03-29T09:38:31.121Z,6.66
2018-03-29T09:39:31.099Z,6.74
2018-03-29T09:40:31.072Z,6.70
2018-03-29T09:41:31.049Z,6.71
2018-03-29T09:42:31.032Z,6.73
2018-03-29T09:43:31.011Z,6.73
2018-03-29T09:44:30.990Z,6.80
2018-03-29T09:45:30.969Z,6.85
2018-03-29T09:46:30.949Z,6.88
2018-03-29T09:47:30.949Z,6.85
2018-03-29T09:48:30.907Z,6.88
2018-03-29T09:49:30.885Z,6.84
2018-03-29T09:50:30.864Z,6.89
2018-03-29T09:51:30.849Z,6.91
2018-03-29T09:52:30.818Z,6.94
2018-03-29T09:53:30.796Z,6.94
2018-03-29T09:54:30.778Z,6.94
2018-03-29T09:55:30.755Z,7.03
2018-03-29T09:56:30.736Z,6.88
2018-03-29T09:57:30.717Z,6.80
2018-03-29T09:58:30.693Z,6.81
2018-03-29T09:59:30.671Z,6.99
2018-03-29T10:00:30.651Z,6.92
2018-03-29T10:01:30.635Z,6.98
2018-03-29T10:02:30.605Z,6.94
2018-03-29T10:03:30.586Z,6.91
2018-03-29T10:04:30.572Z,7.05
2018-03-29T10:05:30.549Z,7.05
2018-03-29T10:06:30.530Z,7.16
2018-03-29T10:07:30.501Z,7.24
2018-03-29T10:08:30.488Z,7.23
2018-03-29T10:09:30.463Z,7.39
2018-03-29T10:10:30.442Z,7.31
2018-03-29T10:11:30.423Z,7.40
2018-03-29T10:12:30.400Z,7.42
2018-03-29T10:13:30.380Z,7.63
2018-03-29T10:14:30.360Z,7.64
2018-03-29T10:15:30.344Z,7.67
2018-03-29T10:16:30.321Z,7.64
2018-03-29T10:17:30.314Z,7.64
2018-03-29T10:18:30.288Z,7.63
2018-03-29T10:19:30.257Z,7.45
2018-03-29T10:20:30.234Z,7.52
2018-03-29T10:21:30.219Z,7.50
2018-03-29T10:22:30.200Z,7.45
2018-03-29T10:23:30.179Z,7.50
2018-03-29T10:24:30.153Z,7.50
2018-03-29T10:25:30.138Z,7.52
2018-03-29T10:26:30.117Z,7.64
2018-03-29T10:27:30.093Z,7.63
2018-03-29T10:28:30.074Z,7.64
2018-03-29T10:29:30.052Z,7.67
2018-03-29T10:30:30.039Z,7.67
2018-03-29T10:31:30.014Z,7.48
2018-03-29T10:32:29.988Z,7.40
2018-03-29T10:33:29.976Z,7.34
2018-03-29T10:34:29.949Z,7.31
2018-03-29T10:35:29.928Z,7.24
2018-03-29T10:36:29.911Z,7.30
2018-03-29T10:37:29.887Z,7.31
2018-03-29T10:38:29.870Z,7.27
2018-03-29T10:39:29.853Z,7.20
2018-03-29T10:40:29.823Z,7.32
2018-03-29T10:41:29.805Z,7.25
2018-03-29T10:42:29.782Z,7.17
2018-03-29T10:43:29.759Z,7.24
2018-03-29T10:44:29.750Z,7.34
2018-03-29T10:45:29.719Z,7.27
2018-03-29T10:46:29.706Z,7.30
2018-03-29T10:47:29.690Z,7.40
2018-03-29T10:48:29.656Z,7.28
2018-03-29T10:49:29.639Z,7.24
2018-03-29T10:50:29.614Z,7.31
2018-03-29T10:51:29.592Z,7.39
2018-03-29T10:52:29.616Z,7.37
2018-03-29T10:53:29.552Z,7.43
2018-03-29T10:54:29.535Z,7.53
2018-03-29T10:55:29.514Z,7.48
2018-03-29T10:56:29.492Z,7.50
2018-03-29T10:57:29.467Z,7.46
2018-03-29T10:58:29.449Z,7.45
2018-03-29T10:59:29.436Z,7.58
2018-03-29T11:00:29.411Z,7.50
2018-03-29T11:01:29.386Z,7.55
2018-03-29T11:02:29.365Z,7.55
2018-03-29T11:03:29.349Z,7.67
2018-03-29T11:04:29.323Z,7.42
2018-03-29T11:05:29.307Z,7.48
2018-03-29T11:06:29.286Z,7.43
2018-03-29T11:07:29.273Z,7.49
2018-03-29T11:08:29.243Z,7.46
2018-03-29T11:09:29.219Z,7.49
2018-03-29T11:10:29.206Z,7.52
2018-03-29T11:11:29.179Z,7.50
2018-03-29T11:12:29.161Z,7.60
2018-03-29T11:13:29.144Z,7.61
2018-03-29T11:14:29.118Z,7.69
2018-03-29T11:15:29.097Z,7.68
2018-03-29T11:16:29.085Z,7.72
2018-03-29T11:17:29.057Z,7.82
2018-03-29T11:18:29.038Z,7.79
2018-03-29T11:19:29.019Z,7.90
2018-03-29T11:20:29.001Z,8.07
2018-03-29T11:21:28.981Z,8.20
2018-03-29T11:22:28.958Z,8.25
2018-03-29T11:23:28.935Z,8.28
2018-03-29T11:24:28.916Z,8.16
2018-03-29T11:25:28.894Z,8.37
2018-03-29T11:26:28.878Z,8.41
2018-03-29T11:27:28.865Z,8.30
2018-03-29T11:28:28.832Z,8.55
2018-03-29T11:29:28.812Z,8.63
2018-03-29T11:30:28.793Z,8.83
2018-03-29T11:31:28.770Z,8.98
2018-03-29T11:32:28.753Z,8.95
2018-03-29T11:33:28.740Z,8.86
2018-03-29T11:34:28.728Z,8.87
2018-03-29T11:35:28.694Z,8.80
2018-03-29T11:36:28.679Z,8.83
2018-03-29T11:37:28.649Z,8.83
2018-03-29T11:38:28.643Z,8.83
2018-03-29T11:39:28.613Z,8.77
2018-03-29T11:40:28.588Z,8.80
2018-03-29T11:41:28.573Z,8.59
2018-03-29T11:42:28.553Z,8.61
2018-03-29T11:43:28.534Z,8.63
2018-03-29T11:44:28.508Z,8.68
2018-03-29T11:45:28.490Z,8.61
2018-03-29T11:46:28.468Z,8.38
2018-03-29T11:47:28.453Z,8.34
2018-03-29T11:48:28.429Z,8.26
2018-03-29T11:49:28.408Z,8.26
2018-03-29T11:50:28.395Z,8.12
2018-03-29T11:51:28.372Z,8.10
2018-03-29T11:52:28.350Z,8.11
2018-03-29T11:53:28.335Z,8.11
2018-03-29T11:54:28.316Z,8.12
2018-03-29T11:55:28.297Z,8.15
2018-03-29T11:56:28.270Z,8.11
2018-03-29T11:57:28.258Z,8.05
2018-03-29T11:58:28.231Z,8.15
2018-03-29T11:59:28.207Z,8.18
2018-03-29T12:00:28.192Z,8.15
2018-03-29T12:01:28.167Z,8.23
2018-03-29T12:02:28.154Z,8.33
2018-03-29T12:03:28.128Z,8.38
2018-03-29T12:04:28.106Z,8.45
2018-03-29T12:05:28.090Z,8.50
2018-03-29T12:06:28.072Z,8.55
2018-03-29T12:07:28.050Z,8.77
2018-03-29T12:08:28.031Z,8.95
2018-03-29T12:09:28.010Z,9.05
2018-03-29T12:10:27.989Z,9.04
2018-03-29T12:11:27.974Z,8.92
2018-03-29T12:12:27.951Z,9.02
2018-03-29T12:13:27.930Z,9.21
2018-03-29T12:14:27.922Z,9.29
2018-03-29T12:15:27.890Z,9.31
2018-03-29T12:16:27.878Z,9.24
2018-03-29T12:17:27.854Z,9.28
2018-03-29T12:18:27.831Z,9.47
2018-03-29T12:19:27.812Z,9.50
2018-03-29T12:20:27.798Z,9.68
2018-03-29T12:21:27.771Z,9.60
2018-03-29T12:22:27.760Z,9.58
2018-03-29T12:23:27.737Z,9.60
2018-03-29T12:24:27.713Z,9.47
2018-03-29T12:25:27.709Z,9.39
2018-03-29T12:26:27.688Z,9.18
2018-03-29T12:27:27.661Z,9.01
2018-03-29T12:28:27.640Z,8.92
2018-03-29T12:29:27.615Z,8.83
2018-03-29T12:30:27.599Z,8.96
2018-03-29T12:31:27.587Z,8.91
2018-03-29T12:32:27.562Z,8.87
2018-03-29T12:33:27.537Z,8.79
2018-03-29T12:34:27.515Z,8.91
2018-03-29T12:35:27.496Z,8.92
2018-03-29T12:36:27.476Z,8.86
2018-03-29T12:37:27.456Z,8.89
2018-03-29T12:38:27.437Z,8.98
2018-03-29T12:39:27.420Z,8.95
2018-03-29T12:40:27.397Z,9.24
2018-03-29T12:41:27.379Z,9.39
2018-03-29T12:42:27.356Z,9.32
2018-03-29T12:43:27.338Z,9.43
2018-03-29T12:44:27.318Z,9.61
2018-03-29T12:45:27.297Z,9.56
2018-03-29T12:46:27.287Z,9.81
2018-03-29T12:47:27.258Z,10.05
2018-03-29T12:48:27.248Z,10.15
2018-03-29T12:49:27.220Z,10.09
2018-03-29T12:50:27.327Z,9.97
2018-03-29T12:51:27.185Z,10.18
2018-03-29T12:52:27.163Z,10.25
2018-03-29T12:53:27.146Z,10.27
2018-03-29T12:54:27.126Z,10.38
2018-03-29T12:55:27.114Z,10.42
2018-03-29T12:56:27.083Z,10.18
2018-03-29T12:57:27.065Z,10.02
2018-03-29T12:58:27.047Z,9.76
2018-03-29T12:59:27.040Z,9.58
2018-03-29T13:00:27.003Z,9.47
2018-03-29T13:01:26.987Z,9.40
2018-03-29T13:02:26.968Z,9.38
2018-03-29T13:03:26.950Z,9.35
2018-03-29T13:04:26.928Z,9.18
2018-03-29T13:05:26.920Z,9.24
2018-03-29T13:06:26.893Z,9.26
2018-03-29T13:08:26.855Z,9.15
2018-03-29T13:09:26.837Z,9.18
2018-03-29T13:10:26.814Z,9.11
2018-03-29T13:11:26.797Z,9.08
2018-03-29T13:12:26.776Z,9.13
2018-03-29T13:13:26.756Z,9.01
2018-03-29T13:14:26.737Z,9.01
2018-03-29T13:15:26.782Z,8.92
2018-03-29T13:16:26.698Z,8.92
2018-03-29T13:17:26.688Z,8.81
2018-03-29T13:18:26.657Z,8.84
2018-03-29T13:19:26.639Z,8.71